Fremington, United Kingdom
Current Conditions -  °F | °C
As of 7:50 AM on Saturday 22 Nov 2014 (Local Time) from EGDX Reporting Station
Broken Clouds Broken Clouds  
Wind Chill: 55°   Ceiling: 1900
Heat Index: 55°   Visibility: 6mi
Dew Point: 54°   Wind: 5mph
Humidity: 94%   Direction: 170°S
Pressure: 29.8"   Gusts: NA
Location:  51.07°N, 4.12°W
Report Text: EGDX 220750Z AUTO 17004KT 9999 BKN019/// SCT037/// BKN049/// 13/12 Q1009 RERA
Loading
Personal Weather Stations






























Interactive Weather Map New forecast layout! Learn more

10-Day Weather Forecast

Advertisements
Track Severe Weather on mobile